| Date | Time | Temp. (oF) | Dew Point (oF) | Rel. Hum. (%) | Press. (in.) | Wind Dir. | Wind Speed (mph) | Hourly Rainfall (in.) |
|
|---|---|---|---|---|---|---|---|---|---|
| 1 | 07/06 | 00:00 | 67 | 64 | 92 | 29.92 | WSW | 1 | 0.00 |
| 2 | 07/05 | 23:00 | 68 | 64 | 89 | 29.91 | W | 2 | 0.00 |
| 3 | 07/05 | 22:00 | 70 | 66 | 90 | 29.89 | NNE | 0 | 0.00 |
| 4 | 07/05 | 21:00 | 70 | 67 | 91 | 29.86 | NNE | 0 | 0.00 |
| 5 | 07/05 | 20:00 | 70 | 67 | 92 | 29.84 | E | 3 | 0.00 |
| 6 | 07/05 | 19:00 | 71 | 67 | 90 | 29.84 | WSW | 1 | 0.15 |
| 7 | 07/05 | 18:00 | 82 | 66 | 60 | 29.80 | SW | 7 | 0.00 |
| 8 | 07/05 | 17:00 | 83 | 66 | 57 | 29.80 | SW | 7 | 0.00 |
| 9 | 07/05 | 16:00 | 81 | 65 | 59 | 29.82 | W | 9 | 0.00 |
| 10 | 07/05 | 15:00 | 80 | 65 | 62 | 29.84 | S | 5 | 0.00 |
| 11 | 07/05 | 14:00 | 80 | 67 | 66 | 29.86 | SSW | 5 | 0.00 |
| 12 | 07/05 | 13:00 | 77 | 65 | 68 | 29.88 | SW | 3 | 0.00 |
| 13 | 07/05 | 12:00 | 77 | 69 | 78 | 29.87 | SSW | 4 | 0.00 |
| 14 | 07/05 | 11:00 | 76 | 68 | 78 | 29.88 | W | 2 | 0.00 |
| 15 | 07/05 | 10:00 | 77 | 68 | 76 | 29.88 | NW | 5 | 0.00 |
| 16 | 07/05 | 09:00 | 74 | 69 | 85 | 29.88 | SSW | 4 | 0.00 |
| 17 | 07/05 | 08:00 | 71 | 68 | 93 | 29.88 | SSW | 6 | 0.00 |
| 18 | 07/05 | 07:00 | 68 | 67 | 97 | 29.88 | SSE | 1 | 0.00 |
| 19 | 07/05 | 06:00 | 67 | 65 | 96 | 29.89 | WSW | 0 | 0.00 |
| 20 | 07/05 | 05:00 | 68 | 67 | 97 | 29.88 | SW | 0 | 0.01 |
| 21 | 07/05 | 04:00 | 68 | 67 | 98 | 29.89 | S | 0 | 0.00 |
| 22 | 07/05 | 03:00 | 69 | 68 | 98 | 29.91 | W | 0 | 0.00 |
| 23 | 07/05 | 02:00 | 70 | 69 | 97 | 29.91 | WSW | 2 | 0.00 |
| 24 | 07/05 | 01:00 | 70 | 69 | 99 | 29.92 | WSW | 0 | 0.00 |